Airfield :
LOGIN :

Register | Disclaimer

   EN    FR    IT 

 










Legend :    VFR   Marginal VFR   IFR   Intensive IFR   Very Intensive IFR
Visi :
Ceiling :
>= 8 km
>= 3000ft
5 to 8 km
1000 to 3000 ft
1500m to 5 km
500 to 1000 ft
800 to 1500m
200 to 500 ft
< 800m
< 200 ft
Symbols :   Thunderstorms  Fog  Heavy snow  Heavy precipitations  Wind > 20 kt
SIGMETs :     Misc.  Thunderstorms  Icing  Turbulence  Mountain Waves  Volcanic Ashes






- Airport Elevation : 3 ft
- IATA code : DHR


EHKD - Den Helder De Kooy

CURRENT METAR :
  • 161307Z AUTO 20016KT 9999 // FEW015CB BKN046 OVC051 08/07 Q1002 20016KT 9999 FEW008 BKN037 TEMPO SCT008

EXPIRED METARs :
  • 161255Z AUTO 20016KT 170V230 //// // FEW008 SCT042 BKN046 08/07 Q1002 RE// 20016KT 9999 SCT008 BKN037
  • 161227Z AUTO 21014KT 9999 SCT009 BKN010 OVC069 08/07 Q1002 GRN 20016KT 9999 SCT008 BKN037
  • 161225Z AUTO 21013KT //// // FEW009 SCT010 OVC069 09/07 Q1002 RE// 20016KT 9999 SCT008 BKN037
  • 161155Z AUTO 21013KT 180V240 9999 FEW010 SCT056 BKN061 09/07 Q1002 BLU 20016KT 9999 SCT008 BKN037
  • 161132Z AUTO 20013KT 9999 SCT061 BKN068 BKN076 08/07 Q1002 BLU 20016KT 9999 SCT008 BKN037
  • 161114Z AUTO 20016KT //// // FEW008 SCT083 BKN089 08/07 Q1002 20016KT 9999 SCT008 BKN037
  • 161102Z AUTO 20016KT 9999 FEW007 SCT008 BKN010 08/07 Q1002 GRN 20016KT 9999 SCT008 BKN037
  • 161055Z AUTO 21017KT 170V230 //// // SCT008 BKN009 OVC011 08/07 Q1002 RE// 20016KT 9999 SCT008 BKN037
  • 161025Z AUTO 20017KT //// // SCT008 BKN009 BKN063 08/07 Q1003 RE// 20016KT 9999 SCT008 BKN037

TAF TAF EHKD
Valid from the 16 at 10:00 until the 16 at 22:00 UTC


160903Z 1610/1622 21016KT 9999 SCT040 BKN100
TEMPO 1610/1615 SCT008
BECMG 1614/1616 18008KT



MET'MAP, your aeronautical weather chart ! - Copyright ORBIFLY December 2007 - Disclaimer

ORBIFLY MET'MAP TEAM :

Programming & Development : Alexandra Zaïnal
Concept & original design : Baudouin d'Aumeries
Assistance for programming : Marc-Olivier Méhu
Technical & hardware support : Manuel Goepfert

Contact : metmap@orbifly.com




SOURCES & CREDITS :

   NOAA